Time;durP1;ratioP1;P1;durP2;ratioP2;P2;SDS_P1;SDS_P2;PMS_P1;PMS_P2;Temp;Humidity;BMP_temperature;BMP_pressure;BME280_temperature;BME280_humidity;BME280_pressure;Samples;Min_cycle;Max_cycle;Signal;HPM_P1;HPM_P2
2020/12/01 00:01:04;;;;;;;14.70;12.03;;;;;;;;;;5072529;28;20174;-59
2020/12/01 00:03:29;;;;;;;16.73;13.43;;;;;;;;;;5068593;28;20188;-59
2020/12/01 00:05:54;;;;;;;14.27;12.70;;;;;;;;;;5071024;28;20187;-59
2020/12/01 00:08:19;;;;;;;16.23;13.38;;;;;;;;;;5066079;28;20192;-58
2020/12/01 00:10:45;;;;;;;15.02;13.45;;;;;;;;;;5072116;28;20164;-58
2020/12/01 00:13:11;;;;;;;15.20;12.80;;;;;;;;;;5065407;28;20187;-59
2020/12/01 00:15:36;;;;;;;21.97;13.03;;;;;;;;;;5072403;28;20224;-58
2020/12/01 00:18:01;;;;;;;14.90;13.05;;;;;;;;;;5070381;28;20599;-58
2020/12/01 00:20:26;;;;;;;15.67;13.17;;;;;;;;;;5072520;28;20210;-59
2020/12/01 00:22:55;;;;;;;15.30;12.83;;;;;;;;;;5069904;28;20254;-58
2020/12/01 00:25:20;;;;;;;17.20;12.97;;;;;;;;;;5072465;28;20182;-58
2020/12/01 00:27:45;;;;;;;13.83;12.40;;;;;;;;;;5071615;28;20610;-58
2020/12/01 00:30:12;;;;;;;14.90;12.77;;;;;;;;;;5071295;28;20183;-58
2020/12/01 00:32:37;;;;;;;15.03;13.43;;;;;;;;;;5068493;28;20212;-58
2020/12/01 00:35:04;;;;;;;17.80;14.13;;;;;;;;;;5070473;28;20703;-58
2020/12/01 00:37:29;;;;;;;16.13;12.87;;;;;;;;;;5071783;28;20531;-59
2020/12/01 00:39:54;;;;;;;15.13;13.52;;;;;;;;;;5069072;28;20742;-58
2020/12/01 00:42:19;;;;;;;16.00;13.13;;;;;;;;;;5069539;28;20517;-58
2020/12/01 00:44:44;;;;;;;16.30;14.20;;;;;;;;;;5069808;28;20170;-59
2020/12/01 00:47:10;;;;;;;17.53;13.27;;;;;;;;;;5071132;28;20201;-58
2020/12/01 00:49:35;;;;;;;15.20;13.37;;;;;;;;;;5069356;28;20223;-58
2020/12/01 00:52:00;;;;;;;16.10;13.40;;;;;;;;;;5072207;28;20203;-59
2020/12/01 00:54:25;;;;;;;16.02;14.32;;;;;;;;;;5069399;28;20187;-59
2020/12/01 00:56:51;;;;;;;15.75;13.63;;;;;;;;;;5071678;28;20226;-59
2020/12/01 00:59:16;;;;;;;15.63;13.10;;;;;;;;;;5071009;28;20243;-59
2020/12/01 01:01:41;;;;;;;15.73;13.65;;;;;;;;;;5070977;28;20166;-59
2020/12/01 01:04:06;;;;;;;17.75;14.70;;;;;;;;;;5069295;28;20201;-59
2020/12/01 01:06:31;;;;;;;15.20;13.57;;;;;;;;;;5071082;28;20168;-59
2020/12/01 01:08:56;;;;;;;16.05;14.07;;;;;;;;;;5070290;28;20273;-59
2020/12/01 01:11:26;;;;;;;19.63;15.43;;;;;;;;;;5067961;28;20184;-59
2020/12/01 01:13:51;;;;;;;18.10;14.73;;;;;;;;;;5069178;28;20179;-59
2020/12/01 01:16:16;;;;;;;19.35;14.50;;;;;;;;;;5070872;28;20649;-58
2020/12/01 01:18:41;;;;;;;15.43;13.30;;;;;;;;;;5070607;28;20173;-58
2020/12/01 01:21:06;;;;;;;16.15;14.07;;;;;;;;;;5067463;28;20188;-59
2020/12/01 01:23:32;;;;;;;15.80;14.20;;;;;;;;;;5064684;28;20163;-58
2020/12/01 01:25:57;;;;;;;19.08;15.95;;;;;;;;;;5071246;28;20198;-58
2020/12/01 01:28:22;;;;;;;18.77;15.85;;;;;;;;;;5070114;28;20183;-58
2020/12/01 01:30:47;;;;;;;18.00;15.10;;;;;;;;;;5070022;28;20220;-59
2020/12/01 01:33:12;;;;;;;16.33;14.53;;;;;;;;;;5068943;28;20173;-59
2020/12/01 01:35:38;;;;;;;18.63;15.87;;;;;;;;;;5070213;28;20214;-58
2020/12/01 01:38:07;;;;;;;18.17;15.93;;;;;;;;;;5070850;28;20644;-59
2020/12/01 01:40:33;;;;;;;22.50;17.60;;;;;;;;;;5070126;28;20644;-59
2020/12/01 01:42:58;;;;;;;21.10;17.83;;;;;;;;;;5068158;28;20676;-59
2020/12/01 01:45:35;;;;;;;19.30;17.30;;;;;;;;;;5068539;28;20550;-59
2020/12/01 01:48:01;;;;;;;22.57;17.53;;;;;;;;;;5068387;28;20180;-59
2020/12/01 01:50:28;;;;;;;18.77;16.40;;;;;;;;;;5069857;28;20642;-59
2020/12/01 01:52:54;;;;;;;21.10;17.87;;;;;;;;;;5067875;28;20540;-58
2020/12/01 01:55:20;;;;;;;20.57;17.30;;;;;;;;;;5070762;28;20651;-58
2020/12/01 01:57:48;;;;;;;20.73;17.97;;;;;;;;;;5075573;28;20224;-58
2020/12/01 02:00:36;;;;;;;20.60;17.20;;;;;;;;;;5068941;28;20597;-58
2020/12/01 02:03:01;;;;;;;19.97;16.87;;;;;;;;;;5066241;28;21074;-58
2020/12/01 02:05:26;;;;;;;23.50;18.63;;;;;;;;;;5070125;28;20601;-58
2020/12/01 02:07:52;;;;;;;19.58;17.52;;;;;;;;;;5070781;28;20177;-59
2020/12/01 02:10:17;;;;;;;20.40;18.00;;;;;;;;;;5069898;28;20178;-58
2020/12/01 02:12:43;;;;;;;22.97;18.83;;;;;;;;;;5066045;28;20241;-58
2020/12/01 02:15:09;;;;;;;19.20;17.17;;;;;;;;;;5065788;28;20223;-58
2020/12/01 02:17:35;;;;;;;19.93;17.70;;;;;;;;;;5069305;28;20740;-58
2020/12/01 02:20:04;;;;;;;21.53;17.83;;;;;;;;;;5070573;28;20178;-59
2020/12/01 02:22:29;;;;;;;22.40;18.13;;;;;;;;;;5067656;28;20628;-59
2020/12/01 02:24:56;;;;;;;20.67;17.43;;;;;;;;;;5058373;28;20626;-59
2020/12/01 02:27:24;;;;;;;20.13;18.03;;;;;;;;;;5064251;28;20193;-59
2020/12/01 02:29:51;;;;;;;21.70;18.40;;;;;;;;;;5066183;28;21048;-58
2020/12/01 02:32:17;;;;;;;19.40;16.23;;;;;;;;;;5063236;28;20632;-58
2020/12/01 02:34:44;;;;;;;20.60;17.47;;;;;;;;;;5066266;28;20619;-58
2020/12/01 02:37:12;;;;;;;20.97;17.27;;;;;;;;;;5070397;28;20673;-58
2020/12/01 02:39:38;;;;;;;21.37;19.00;;;;;;;;;;5069085;28;21159;-58
2020/12/01 02:42:06;;;;;;;21.40;18.27;;;;;;;;;;5069110;28;20630;-58
2020/12/01 02:44:32;;;;;;;20.27;18.17;;;;;;;;;;5064383;28;20597;-58
2020/12/01 02:46:59;;;;;;;21.20;17.90;;;;;;;;;;5070237;28;20612;-58
2020/12/01 02:49:25;;;;;;;21.93;17.50;;;;;;;;;;5068979;28;20658;-58
2020/12/01 02:51:50;;;;;;;20.73;18.15;;;;;;;;;;5069589;28;21166;-58
2020/12/01 02:54:15;;;;;;;19.50;17.10;;;;;;;;;;5065218;28;20181;-58
2020/12/01 02:56:40;;;;;;;20.10;17.50;;;;;;;;;;5069245;28;20271;-58
2020/12/01 02:59:05;;;;;;;20.37;17.70;;;;;;;;;;5068752;28;20261;-59
2020/12/01 03:01:30;;;;;;;24.63;17.88;;;;;;;;;;5069470;28;20174;-58
2020/12/01 03:03:56;;;;;;;24.27;19.33;;;;;;;;;;5061700;28;20178;-59
2020/12/01 03:06:21;;;;;;;21.63;18.23;;;;;;;;;;5064040;28;20162;-59
2020/12/01 03:08:47;;;;;;;22.27;18.40;;;;;;;;;;5068865;28;20177;-60
2020/12/01 03:11:12;;;;;;;22.33;19.10;;;;;;;;;;5069313;28;20183;-58
2020/12/01 03:13:38;;;;;;;24.70;19.93;;;;;;;;;;5066406;28;20662;-58
2020/12/01 03:16:07;;;;;;;23.67;19.70;;;;;;;;;;5065417;28;20256;-58
2020/12/01 03:18:33;;;;;;;24.27;20.13;;;;;;;;;;5068913;28;20178;-58
2020/12/01 03:20:58;;;;;;;24.10;19.30;;;;;;;;;;5069826;28;20612;-58
2020/12/01 03:23:23;;;;;;;25.00;21.17;;;;;;;;;;5066765;28;20215;-59
2020/12/01 03:25:48;;;;;;;29.73;22.95;;;;;;;;;;5067635;28;20168;-58
2020/12/01 03:28:13;;;;;;;25.98;21.35;;;;;;;;;;5064419;28;20252;-58
2020/12/01 03:30:38;;;;;;;28.00;22.05;;;;;;;;;;5069661;28;20208;-58
2020/12/01 03:33:03;;;;;;;28.15;23.08;;;;;;;;;;5067847;28;20183;-58
2020/12/01 03:35:29;;;;;;;26.55;22.25;;;;;;;;;;5063290;28;20196;-59
2020/12/01 03:37:54;;;;;;;28.77;22.57;;;;;;;;;;5069438;28;20175;-58
2020/12/01 03:40:19;;;;;;;31.43;23.77;;;;;;;;;;5065895;28;20256;-58
2020/12/01 03:42:45;;;;;;;27.60;22.47;;;;;;;;;;5065402;28;20573;-58
2020/12/01 03:45:10;;;;;;;27.37;21.83;;;;;;;;;;5066567;28;20239;-58
2020/12/01 03:47:35;;;;;;;31.52;23.05;;;;;;;;;;5059748;28;20171;-58
2020/12/01 03:50:00;;;;;;;28.05;22.60;;;;;;;;;;5068418;28;20708;-58
2020/12/01 03:52:25;;;;;;;27.83;22.05;;;;;;;;;;5064240;28;20167;-58
2020/12/01 03:54:50;;;;;;;29.98;23.15;;;;;;;;;;5064185;28;20223;-59
2020/12/01 03:57:15;;;;;;;25.83;20.70;;;;;;;;;;5066121;28;20810;-58
2020/12/01 03:59:41;;;;;;;27.87;21.37;;;;;;;;;;5060973;28;20170;-57
2020/12/01 04:02:06;;;;;;;29.08;21.25;;;;;;;;;;5067259;28;20174;-57
2020/12/01 04:04:31;;;;;;;32.22;22.98;;;;;;;;;;5059071;28;20181;-57
2020/12/01 04:06:56;;;;;;;29.48;23.50;;;;;;;;;;5065049;28;20265;-56
2020/12/01 04:09:22;;;;;;;31.97;21.90;;;;;;;;;;5068153;28;20660;-57
2020/12/01 04:11:47;;;;;;;31.03;21.23;;;;;;;;;;5062905;28;20187;-58
2020/12/01 04:14:12;;;;;;;30.75;24.08;;;;;;;;;;5056504;28;20184;-57
2020/12/01 04:16:38;;;;;;;31.20;22.30;;;;;;;;;;5063298;28;20227;-58
2020/12/01 04:19:03;;;;;;;30.83;23.15;;;;;;;;;;5062031;28;20634;-58
2020/12/01 04:21:28;;;;;;;30.00;22.90;;;;;;;;;;5063471;28;20199;-57
2020/12/01 04:23:53;;;;;;;26.58;21.98;;;;;;;;;;5062660;28;20648;-57
2020/12/01 04:26:19;;;;;;;30.38;21.30;;;;;;;;;;5066857;28;20238;-58
2020/12/01 04:28:45;;;;;;;28.77;21.70;;;;;;;;;;5064265;28;20183;-57
2020/12/01 04:31:10;;;;;;;30.07;22.30;;;;;;;;;;5063533;28;20606;-57
2020/12/01 04:33:35;;;;;;;30.05;21.95;;;;;;;;;;5066893;28;20183;-58
2020/12/01 04:36:00;;;;;;;31.43;23.30;;;;;;;;;;5064984;28;20742;-58
2020/12/01 04:38:25;;;;;;;30.40;22.48;;;;;;;;;;5068224;28;20350;-58
2020/12/01 04:40:50;;;;;;;30.70;22.53;;;;;;;;;;5068638;28;20169;-58
2020/12/01 04:43:34;;;;;;;27.33;21.50;;;;;;;;;;5066904;28;20170;-58
2020/12/01 04:46:00;;;;;;;28.80;22.40;;;;;;;;;;5068509;28;20235;-58
2020/12/01 04:48:40;;;;;;;28.87;22.47;;;;;;;;;;5068879;28;20599;-58
2020/12/01 04:51:11;;;;;;;32.07;22.50;;;;;;;;;;5067967;28;20609;-58
2020/12/01 04:53:36;;;;;;;26.63;20.83;;;;;;;;;;5065216;28;20809;-58
2020/12/01 04:56:20;;;;;;;28.65;23.15;;;;;;;;;;5066409;28;20763;-59
2020/12/01 04:59:04;;;;;;;29.33;20.73;;;;;;;;;;5066928;28;20262;-57
2020/12/01 05:01:44;;;;;;;28.43;21.73;;;;;;;;;;5068210;28;20709;-58
2020/12/01 05:04:14;;;;;;;30.30;21.50;;;;;;;;;;5067688;28;20701;-58
2020/12/01 05:09:25;;;;;;;25.90;21.10;;;;;;;;;;5073059;28;20617;-58
2020/12/01 05:11:56;;;;;;;27.60;22.40;;;;;;;;;;5071284;28;21225;-58
2020/12/01 05:14:24;;;;;;;29.10;21.77;;;;;;;;;;5061018;28;20615;-58
2020/12/01 05:16:49;;;;;;;26.10;20.63;;;;;;;;;;5069548;28;20699;-58
2020/12/01 05:19:24;;;;;;;27.30;20.90;;;;;;;;;;5069957;28;20633;-58
2020/12/01 05:21:49;;;;;;;29.90;21.47;;;;;;;;;;5072958;28;20188;-58
2020/12/01 05:24:18;;;;;;;32.28;22.45;;;;;;;;;;5069030;28;20618;-59
2020/12/01 05:26:43;;;;;;;27.73;20.77;;;;;;;;;;5066127;28;20637;-58
2020/12/01 05:29:24;;;;;;;27.73;21.38;;;;;;;;;;5066980;28;21160;-59
2020/12/01 05:31:49;;;;;;;29.53;21.47;;;;;;;;;;5066850;28;20195;-58
2020/12/01 05:34:19;;;;;;;27.52;20.92;;;;;;;;;;5068778;28;20645;-58
2020/12/01 05:36:44;;;;;;;29.63;22.97;;;;;;;;;;5065596;28;20239;-58
2020/12/01 05:39:20;;;;;;;28.13;21.83;;;;;;;;;;5068298;28;21140;-61
2020/12/01 05:41:46;;;;;;;28.73;22.87;;;;;;;;;;5067053;28;20193;-60
2020/12/01 05:44:16;;;;;;;28.47;20.87;;;;;;;;;;5065602;28;20600;-60
2020/12/01 05:46:43;;;;;;;27.27;22.53;;;;;;;;;;5067134;28;20666;-57
2020/12/01 05:49:18;;;;;;;31.93;23.80;;;;;;;;;;5067414;28;20851;-58
2020/12/01 05:51:45;;;;;;;31.10;23.50;;;;;;;;;;5066519;28;20619;-58
2020/12/01 05:54:15;;;;;;;33.07;23.97;;;;;;;;;;5046439;28;20607;-58
2020/12/01 05:56:45;;;;;;;28.50;21.60;;;;;;;;;;5063596;28;20666;-57
2020/12/01 05:59:14;;;;;;;33.33;23.20;;;;;;;;;;5057595;28;20605;-58
2020/12/01 06:01:41;;;;;;;29.97;23.50;;;;;;;;;;5067310;28;20688;-58
2020/12/01 06:04:11;;;;;;;32.67;24.00;;;;;;;;;;5057980;28;20618;-59
2020/12/01 06:06:44;;;;;;;33.43;25.17;;;;;;;;;;5058833;28;20630;-58
2020/12/01 06:09:28;;;;;;;35.03;25.03;;;;;;;;;;5066393;28;20713;-58
2020/12/01 06:11:57;;;;;;;35.90;25.47;;;;;;;;;;5069813;28;20966;-58
2020/12/01 06:14:35;;;;;;;30.83;22.83;;;;;;;;;;5061393;28;20638;-59
2020/12/01 06:17:02;;;;;;;30.77;23.23;;;;;;;;;;5064546;28;20830;-58
2020/12/01 06:19:47;;;;;;;30.87;23.33;;;;;;;;;;5070878;28;21219;-58
2020/12/01 06:22:29;;;;;;;32.00;21.93;;;;;;;;;;5070151;28;20955;-58
2020/12/01 06:25:14;;;;;;;32.13;22.30;;;;;;;;;;5062863;28;20714;-58
2020/12/01 06:27:42;;;;;;;31.17;23.70;;;;;;;;;;5068563;28;20622;-58
2020/12/01 06:30:19;;;;;;;32.40;23.80;;;;;;;;;;5070256;28;20632;-58
2020/12/01 06:33:05;;;;;;;32.33;23.60;;;;;;;;;;5068458;28;20569;-58
2020/12/01 06:35:55;;;;;;;32.17;24.20;;;;;;;;;;5041644;28;20639;-58
2020/12/01 06:38:39;;;;;;;34.43;23.87;;;;;;;;;;5050111;28;20625;-58
2020/12/01 06:41:10;;;;;;;32.30;23.90;;;;;;;;;;5050158;28;20559;-58
2020/12/01 06:43:37;;;;;;;32.33;23.93;;;;;;;;;;5050375;28;20590;-58
2020/12/01 06:46:18;;;;;;;34.87;24.57;;;;;;;;;;5060545;28;21148;-58
2020/12/01 06:48:45;;;;;;;35.10;23.77;;;;;;;;;;5070058;28;21164;-58
2020/12/01 06:51:11;;;;;;;37.00;26.17;;;;;;;;;;5069743;28;21130;-58
2020/12/01 06:53:37;;;;;;;33.20;24.70;;;;;;;;;;5069714;28;20598;-58
2020/12/01 06:56:06;;;;;;;32.63;23.27;;;;;;;;;;5066144;28;20711;-58
2020/12/01 06:58:35;;;;;;;30.77;23.43;;;;;;;;;;5069978;28;20601;-58
2020/12/01 07:01:06;;;;;;;28.77;22.80;;;;;;;;;;5069913;28;20585;-58
2020/12/01 07:03:32;;;;;;;34.07;24.97;;;;;;;;;;5070086;28;20612;-58
2020/12/01 07:06:08;;;;;;;35.53;26.57;;;;;;;;;;5059576;28;20707;-59
2020/12/01 07:08:33;;;;;;;35.87;26.23;;;;;;;;;;5066405;28;20181;-58
2020/12/01 07:11:06;;;;;;;30.25;22.27;;;;;;;;;;5069598;28;20633;-58
2020/12/01 07:13:39;;;;;;;30.33;22.93;;;;;;;;;;5064334;28;20180;-58
2020/12/01 07:16:27;;;;;;;31.20;24.50;;;;;;;;;;5048105;28;20655;-58
2020/12/01 07:18:56;;;;;;;34.33;23.90;;;;;;;;;;5048346;28;20617;-58
2020/12/01 07:21:24;;;;;;;35.50;24.37;;;;;;;;;;5050350;28;20598;-59
2020/12/01 07:23:49;;;;;;;32.83;23.80;;;;;;;;;;5051201;28;20594;-59
2020/12/01 07:26:31;;;;;;;34.38;25.38;;;;;;;;;;5049565;28;20606;-58
2020/12/01 07:29:03;;;;;;;31.73;23.63;;;;;;;;;;5061905;28;20572;-59
2020/12/01 07:31:31;;;;;;;32.87;25.20;;;;;;;;;;5067851;28;20641;-59
2020/12/01 07:34:14;;;;;;;30.47;23.13;;;;;;;;;;5068938;28;20640;-62
2020/12/01 07:36:41;;;;;;;37.40;26.33;;;;;;;;;;5066064;28;20654;-58
2020/12/01 07:39:12;;;;;;;38.80;26.10;;;;;;;;;;5063022;28;20628;-58
2020/12/01 07:41:45;;;;;;;35.37;25.57;;;;;;;;;;5059004;28;20598;-58
2020/12/01 07:44:11;;;;;;;30.57;23.50;;;;;;;;;;5064361;28;20594;-58
2020/12/01 07:49:16;;;;;;;35.93;26.00;;;;;;;;;;5057413;28;21255;-59
2020/12/01 07:51:41;;;;;;;37.47;26.87;;;;;;;;;;5064890;28;20614;-58
2020/12/01 07:54:07;;;;;;;33.30;26.20;;;;;;;;;;5069202;28;20602;-57
2020/12/01 07:56:32;;;;;;;36.57;26.23;;;;;;;;;;5065115;28;20198;-56
2020/12/01 07:59:12;;;;;;;36.97;26.98;;;;;;;;;;5066653;28;20169;-59
2020/12/01 08:01:38;;;;;;;36.83;27.20;;;;;;;;;;5067506;28;20180;-59
2020/12/01 08:04:11;;;;;;;38.00;26.20;;;;;;;;;;5072953;28;20595;-59
2020/12/01 08:06:36;;;;;;;33.93;25.13;;;;;;;;;;5069450;28;20655;-59
2020/12/01 08:09:09;;;;;;;32.70;25.20;;;;;;;;;;5071770;28;20644;-59
2020/12/01 08:11:34;;;;;;;36.03;25.00;;;;;;;;;;5066026;28;20205;-59
2020/12/01 08:13:59;;;;;;;31.67;25.60;;;;;;;;;;5068310;28;20670;-58
2020/12/01 08:16:27;;;;;;;32.13;25.07;;;;;;;;;;5068528;28;20831;-59
2020/12/01 08:18:53;;;;;;;34.33;26.17;;;;;;;;;;5072563;28;20178;-59
2020/12/01 08:21:20;;;;;;;34.53;26.10;;;;;;;;;;5070970;28;20687;-59
2020/12/01 08:23:47;;;;;;;32.77;25.50;;;;;;;;;;5072597;28;20931;-58
2020/12/01 08:26:32;;;;;;;34.03;25.73;;;;;;;;;;5070466;28;20579;-59
2020/12/01 08:29:01;;;;;;;37.23;27.00;;;;;;;;;;5071788;28;20606;-58
2020/12/01 08:31:34;;;;;;;30.80;24.53;;;;;;;;;;5070760;28;20605;-59
2020/12/01 08:34:11;;;;;;;33.43;25.60;;;;;;;;;;5072357;28;20603;-59
2020/12/01 08:36:55;;;;;;;33.20;23.73;;;;;;;;;;5068966;28;20629;-59
2020/12/01 08:39:23;;;;;;;31.97;24.10;;;;;;;;;;5072342;28;20600;-58
2020/12/01 08:41:52;;;;;;;32.70;26.00;;;;;;;;;;5070423;28;20608;-58
2020/12/01 08:44:17;;;;;;;32.10;26.10;;;;;;;;;;5072029;28;20578;-58
2020/12/01 08:46:45;;;;;;;34.97;25.63;;;;;;;;;;5070049;28;20621;-58
2020/12/01 08:49:23;;;;;;;31.53;25.17;;;;;;;;;;5072046;28;20786;-58
2020/12/01 08:51:59;;;;;;;30.97;23.97;;;;;;;;;;5063280;28;20622;-58
2020/12/01 08:54:32;;;;;;;31.07;23.50;;;;;;;;;;5050390;28;20584;-58
2020/12/01 08:57:01;;;;;;;33.67;25.37;;;;;;;;;;5049597;28;20648;-59
2020/12/01 08:59:31;;;;;;;29.23;23.37;;;;;;;;;;5052001;28;20584;-58
2020/12/01 09:02:01;;;;;;;32.37;24.13;;;;;;;;;;5052640;28;20588;-58
2020/12/01 09:04:27;;;;;;;30.37;22.20;;;;;;;;;;5051918;28;20565;-59
2020/12/01 09:06:54;;;;;;;31.60;24.57;;;;;;;;;;5049738;28;20642;-58
2020/12/01 09:09:28;;;;;;;30.00;24.23;;;;;;;;;;5050898;28;20574;-58
2020/12/01 09:12:13;;;;;;;31.33;24.83;;;;;;;;;;5051531;28;20607;-58
2020/12/01 09:14:49;;;;;;;30.30;23.33;;;;;;;;;;5051531;28;20577;-58
2020/12/01 09:17:48;;;;;;;31.40;24.33;;;;;;;;;;5049599;28;20745;-58
2020/12/01 09:20:47;;;;;;;32.47;24.33;;;;;;;;;;5051512;28;20680;-59
2020/12/01 09:23:20;;;;;;;32.70;24.73;;;;;;;;;;5052351;28;20620;-59
2020/12/01 09:25:46;;;;;;;31.37;24.23;;;;;;;;;;5067734;28;20594;-58
2020/12/01 09:28:13;;;;;;;32.23;24.90;;;;;;;;;;5069997;28;20581;-58
2020/12/01 09:30:40;;;;;;;34.83;24.30;;;;;;;;;;5071415;28;20618;-59
2020/12/01 09:33:07;;;;;;;32.53;25.77;;;;;;;;;;5071144;28;20984;-59
2020/12/01 09:35:32;;;;;;;31.43;24.60;;;;;;;;;;5068670;28;20640;-59
2020/12/01 09:37:57;;;;;;;32.40;26.00;;;;;;;;;;5071309;28;20600;-58
2020/12/01 09:40:26;;;;;;;31.83;25.50;;;;;;;;;;5071528;28;20197;-58
2020/12/01 09:42:53;;;;;;;35.00;26.67;;;;;;;;;;5071369;28;20169;-58
2020/12/01 09:47:58;;;;;;;31.20;25.43;;;;;;;;;;5071465;28;20650;-58
2020/12/01 09:50:26;;;;;;;36.97;26.30;;;;;;;;;;5071469;28;20183;-59
2020/12/01 09:53:04;;;;;;;34.20;26.00;;;;;;;;;;5071121;28;20715;-59
2020/12/01 10:01:01;;;;;;;31.50;24.57;;;;;;;;;;5071164;28;20573;-59
2020/12/01 10:04:36;;;;;;;36.03;28.03;;;;;;;;;;5070845;28;20577;-58
2020/12/01 10:14:06;;;;;;;35.13;26.50;;;;;;;;;;5070795;28;20195;-58
2020/12/01 10:31:11;;;;;;;29.27;24.67;;;;;;;;;;5070333;28;20608;-59
2020/12/01 10:35:24;;;;;;;29.83;24.50;;;;;;;;;;5070433;28;20621;-58
2020/12/01 10:37:57;;;;;;;28.17;23.70;;;;;;;;;;5066977;28;20606;-59
2020/12/01 10:40:23;;;;;;;32.13;25.50;;;;;;;;;;5070424;28;20627;-58
2020/12/01 10:42:48;;;;;;;30.40;25.40;;;;;;;;;;5064258;28;21248;-58
2020/12/01 10:45:14;;;;;;;31.83;23.90;;;;;;;;;;5048605;28;20252;-58
2020/12/01 10:47:39;;;;;;;31.57;23.90;;;;;;;;;;5049155;28;20174;-58
2020/12/01 10:50:05;;;;;;;29.93;25.20;;;;;;;;;;5050168;28;20175;-58
2020/12/01 10:52:30;;;;;;;29.77;23.87;;;;;;;;;;5050129;28;20645;-58
2020/12/01 10:54:55;;;;;;;27.70;23.80;;;;;;;;;;5050062;28;20170;-58
2020/12/01 10:57:21;;;;;;;30.10;24.37;;;;;;;;;;5046425;28;20205;-58
2020/12/01 10:59:46;;;;;;;28.90;22.73;;;;;;;;;;5050944;28;20253;-58
2020/12/01 11:02:11;;;;;;;29.23;24.70;;;;;;;;;;5049885;28;20197;-58
2020/12/01 11:04:36;;;;;;;27.33;23.13;;;;;;;;;;5049937;28;20163;-59
2020/12/01 11:07:02;;;;;;;27.13;23.40;;;;;;;;;;5048049;28;20179;-59
2020/12/01 11:09:28;;;;;;;26.33;22.90;;;;;;;;;;5051119;28;20191;-60
2020/12/01 11:11:53;;;;;;;27.45;23.60;;;;;;;;;;5049935;28;20586;-59
2020/12/01 11:14:18;;;;;;;24.90;21.77;;;;;;;;;;5049812;28;20171;-59
2020/12/01 11:16:43;;;;;;;29.83;23.35;;;;;;;;;;5049601;28;20225;-59
2020/12/01 11:19:08;;;;;;;29.65;23.33;;;;;;;;;;5049171;28;20556;-59
2020/12/01 11:21:34;;;;;;;30.67;22.73;;;;;;;;;;5060500;28;20185;-59
2020/12/01 11:23:59;;;;;;;26.83;22.47;;;;;;;;;;5069670;28;20168;-59
2020/12/01 11:26:24;;;;;;;28.13;23.47;;;;;;;;;;5067956;28;21129;-59
2020/12/01 11:28:50;;;;;;;26.45;22.83;;;;;;;;;;5067736;28;20172;-59
2020/12/01 11:31:16;;;;;;;25.57;22.37;;;;;;;;;;5068213;28;20612;-60
2020/12/01 11:33:41;;;;;;;26.60;21.73;;;;;;;;;;5073508;28;20178;-59
2020/12/01 11:36:06;;;;;;;28.30;21.48;;;;;;;;;;5073743;28;20622;-60
2020/12/01 11:38:32;;;;;;;29.20;21.60;;;;;;;;;;5072188;28;20245;-59
2020/12/01 11:40:57;;;;;;;24.33;20.70;;;;;;;;;;5071805;28;20189;-59
2020/12/01 11:43:22;;;;;;;30.77;22.83;;;;;;;;;;5073840;28;20709;-60
2020/12/01 11:45:47;;;;;;;25.73;20.37;;;;;;;;;;5073644;28;20690;-60
2020/12/01 11:48:12;;;;;;;28.95;23.60;;;;;;;;;;5071709;28;20740;-58
2020/12/01 11:50:37;;;;;;;27.30;22.55;;;;;;;;;;5071743;28;20930;-59
2020/12/01 11:53:02;;;;;;;25.25;20.80;;;;;;;;;;5073510;28;20171;-59
2020/12/01 11:55:28;;;;;;;27.13;22.50;;;;;;;;;;5073557;28;20169;-58
2020/12/01 11:57:53;;;;;;;28.08;23.17;;;;;;;;;;5066378;28;20706;-59
2020/12/01 12:00:23;;;;;;;25.25;21.48;;;;;;;;;;5051441;28;20168;-59
2020/12/01 12:02:48;;;;;;;24.37;20.50;;;;;;;;;;5071955;28;20239;-59
2020/12/01 12:05:14;;;;;;;24.10;20.43;;;;;;;;;;5073193;28;20680;-59
2020/12/01 12:07:39;;;;;;;26.80;21.43;;;;;;;;;;5069341;28;20270;-63
2020/12/01 12:10:05;;;;;;;26.63;21.70;;;;;;;;;;5071312;28;20574;-60
2020/12/01 12:12:30;;;;;;;26.97;21.30;;;;;;;;;;5071454;28;20179;-58
2020/12/01 12:14:55;;;;;;;25.43;21.47;;;;;;;;;;5072797;28;20175;-61
2020/12/01 12:17:20;;;;;;;23.50;20.00;;;;;;;;;;5071398;28;20665;-59
2020/12/01 12:19:45;;;;;;;28.23;22.05;;;;;;;;;;5071372;28;20629;-61
2020/12/01 12:22:11;;;;;;;24.47;20.40;;;;;;;;;;5069377;28;20160;-61
2020/12/01 12:24:36;;;;;;;27.57;21.80;;;;;;;;;;5069557;28;20599;-60
2020/12/01 12:27:01;;;;;;;25.00;20.95;;;;;;;;;;5072904;28;20202;-60
2020/12/01 12:29:26;;;;;;;27.60;21.60;;;;;;;;;;5066526;28;20215;-59
2020/12/01 12:31:51;;;;;;;25.73;21.73;;;;;;;;;;5068404;28;20224;-60
2020/12/01 12:34:17;;;;;;;25.83;22.13;;;;;;;;;;5070860;28;20177;-59
2020/12/01 12:36:43;;;;;;;27.37;21.90;;;;;;;;;;5072729;28;20240;-60
2020/12/01 12:39:08;;;;;;;28.37;23.47;;;;;;;;;;5072511;28;20647;-59
2020/12/01 12:41:33;;;;;;;24.87;21.70;;;;;;;;;;5072739;28;20660;-61
2020/12/01 12:43:58;;;;;;;26.40;22.52;;;;;;;;;;5066206;28;20167;-59
2020/12/01 12:46:23;;;;;;;30.70;23.98;;;;;;;;;;5072140;28;20182;-59
2020/12/01 12:48:48;;;;;;;25.35;22.02;;;;;;;;;;5072549;28;20174;-58
2020/12/01 12:51:14;;;;;;;28.00;22.90;;;;;;;;;;5072303;28;20197;-59
2020/12/01 12:53:39;;;;;;;30.47;23.20;;;;;;;;;;5068513;28;20202;-58
2020/12/01 12:56:04;;;;;;;30.07;24.00;;;;;;;;;;5071927;28;20274;-59
2020/12/01 12:58:30;;;;;;;27.50;21.67;;;;;;;;;;5070907;28;20642;-61
2020/12/01 13:00:55;;;;;;;27.13;22.73;;;;;;;;;;5072147;28;20180;-58
2020/12/01 13:03:20;;;;;;;30.90;22.77;;;;;;;;;;5070256;28;20166;-60
2020/12/01 13:05:45;;;;;;;27.13;22.80;;;;;;;;;;5070437;28;20186;-60
2020/12/01 13:08:10;;;;;;;29.60;23.60;;;;;;;;;;5072070;28;20258;-60
2020/12/01 13:10:36;;;;;;;25.90;22.37;;;;;;;;;;5065540;28;20185;-59
2020/12/01 13:13:01;;;;;;;26.70;22.90;;;;;;;;;;5068325;28;20172;-60
2020/12/01 13:15:27;;;;;;;29.03;22.80;;;;;;;;;;5070068;28;20455;-59
2020/12/01 13:17:52;;;;;;;29.03;23.20;;;;;;;;;;5071690;28;20172;-59
2020/12/01 13:20:19;;;;;;;31.67;25.60;;;;;;;;;;5071693;28;20181;-59
2020/12/01 13:22:44;;;;;;;25.17;22.07;;;;;;;;;;5069919;28;20190;-59
2020/12/01 13:25:10;;;;;;;29.05;23.95;;;;;;;;;;5070024;28;20641;-59
2020/12/01 13:27:35;;;;;;;31.13;23.07;;;;;;;;;;5071855;28;20175;-60
2020/12/01 13:30:00;;;;;;;25.73;22.13;;;;;;;;;;5071526;28;20163;-60
2020/12/01 13:32:26;;;;;;;26.90;22.27;;;;;;;;;;5071756;28;20683;-60
2020/12/01 13:34:51;;;;;;;27.07;23.27;;;;;;;;;;5069427;28;20176;-60
2020/12/01 13:37:17;;;;;;;30.47;24.37;;;;;;;;;;5069508;28;20617;-60
2020/12/01 13:39:42;;;;;;;30.43;24.33;;;;;;;;;;5071492;28;20167;-59
2020/12/01 13:42:07;;;;;;;32.43;24.80;;;;;;;;;;5069592;28;20260;-59
2020/12/01 13:44:32;;;;;;;30.80;24.77;;;;;;;;;;5069540;28;20166;-58
2020/12/01 13:46:57;;;;;;;31.52;25.83;;;;;;;;;;5069503;28;20220;-58
2020/12/01 13:49:22;;;;;;;31.38;24.13;;;;;;;;;;5063508;28;20520;-59
2020/12/01 13:51:48;;;;;;;30.13;25.30;;;;;;;;;;5071158;28;20201;-58
2020/12/01 13:54:13;;;;;;;29.23;24.37;;;;;;;;;;5069357;28;20201;-58
2020/12/01 13:56:41;;;;;;;33.57;26.60;;;;;;;;;;5068882;28;20269;-59
2020/12/01 13:59:06;;;;;;;32.40;25.80;;;;;;;;;;5070883;28;20197;-59
2020/12/01 14:01:33;;;;;;;33.75;26.20;;;;;;;;;;5070934;28;20582;-60
2020/12/01 14:03:58;;;;;;;29.90;24.80;;;;;;;;;;5068873;28;20201;-59
2020/12/01 14:06:23;;;;;;;30.73;24.77;;;;;;;;;;5070828;28;20855;-59
2020/12/01 14:08:48;;;;;;;30.60;24.95;;;;;;;;;;5069291;28;20179;-59
2020/12/01 14:11:14;;;;;;;35.87;26.40;;;;;;;;;;5070849;28;20181;-59
2020/12/01 14:13:39;;;;;;;31.20;25.90;;;;;;;;;;5068743;28;20567;-59
2020/12/01 14:16:04;;;;;;;31.30;25.50;;;;;;;;;;5070489;28;21215;-59
2020/12/01 14:18:29;;;;;;;29.85;24.27;;;;;;;;;;5069017;28;20252;-59
2020/12/01 14:20:55;;;;;;;31.60;25.52;;;;;;;;;;5070716;28;20209;-59
2020/12/01 14:23:20;;;;;;;31.30;24.97;;;;;;;;;;5062274;28;20181;-59
2020/12/01 14:25:45;;;;;;;32.22;24.50;;;;;;;;;;5068774;28;20264;-59
2020/12/01 14:28:10;;;;;;;31.17;25.30;;;;;;;;;;5068740;28;20163;-59
2020/12/01 14:30:35;;;;;;;31.40;23.98;;;;;;;;;;5070579;28;20473;-59
2020/12/01 14:33:00;;;;;;;32.17;26.27;;;;;;;;;;5068591;28;20170;-59
2020/12/01 14:35:26;;;;;;;32.25;25.67;;;;;;;;;;5070526;28;20246;-59
2020/12/01 14:37:52;;;;;;;31.97;26.60;;;;;;;;;;5070319;28;20205;-59
2020/12/01 14:40:18;;;;;;;36.77;27.70;;;;;;;;;;5068457;28;20205;-59
2020/12/01 14:42:43;;;;;;;34.17;26.50;;;;;;;;;;5068422;28;20934;-59
2020/12/01 14:45:10;;;;;;;36.10;27.08;;;;;;;;;;5067861;28;20583;-59
2020/12/01 14:47:53;;;;;;;33.80;26.60;;;;;;;;;;5070254;28;20661;-59
2020/12/01 14:50:21;;;;;;;35.00;26.83;;;;;;;;;;5063629;28;20611;-59
2020/12/01 14:52:49;;;;;;;29.73;24.77;;;;;;;;;;5062952;28;20608;-59
2020/12/01 14:55:17;;;;;;;37.47;27.37;;;;;;;;;;5069483;28;20596;-59
2020/12/01 14:57:55;;;;;;;34.73;26.60;;;;;;;;;;5063371;28;20728;-59